Latest Weather Observations for Ceduna

IDS60801

Issued at 9:31 pm CST Sunday 25 September 2016 (issued every 30 minutes, with the page automatically refreshed every 10 minutes)

About weather observations | Map of weather stations | Latest weather observations for SA | Other Formats
Station Details ID: 018012 Name: CEDUNA AMO Lat: -32.13 Lon: 133.70 Height: 15.3 m
Data from the previous 72 hours. | See also: Recent months at Ceduna
Date/Time
CST
Temp
°C
App
Temp
°C
Dew
Point
°C
Rel
Hum
%
Delta-T
°C
Wind Press
QNH
hPa
Press
MSL
hPa
Rain since
9am
mm
Dir  Spd
km/h
Gust
km/h
Spd
kts
Gust
kts
25/09:30pm 6.9 2.5 2.8 75 1.7 ENE 15 19 8 10 1015.4 1015.4 0.0
25/09:00pm 7.1 3.1 2.8 74 1.8 ENE 13 15 7 8 1015.4 1015.4 0.0
25/08:30pm 7.4 3.8 3.1 74 1.8 ENE 11 11 6 6 1015.2 1015.2 0.0
25/08:00pm 7.8 5.1 3.5 74 1.8 ESE 7 9 4 5 1015.0 1015.0 0.0
25/07:30pm 9.2 6.1 3.4 67 2.5 E 9 13 5 7 1014.5 1014.5 0.0
25/07:00pm 11.2 7.7 3.7 60 3.3 SE 11 13 6 7 1014.0 1014.0 0.0
25/06:30pm 14.0 10.2 4.0 51 4.6 SE 13 15 7 8 1013.6 1013.6 0.0
25/06:00pm 16.0 12.0 4.7 47 5.3 SSE 15 20 8 11 1013.6 1013.6 0.0
25/05:30pm 16.9 11.4 1.8 36 6.7 S 20 26 11 14 1013.5 1013.5 0.0
25/05:00pm 17.6 12.5 2.8 37 6.8 SSW 19 24 10 13 1013.2 1013.2 0.0
25/04:30pm 17.6 12.5 4.2 41 6.3 SSW 20 24 11 13 1013.2 1013.2 0.0
25/04:00pm 18.8 13.6 2.2 33 7.6 SSW 19 28 10 15 1013.2 1013.2 0.0
25/03:30pm 18.8 13.3 0.9 30 8.0 SW 19 22 10 12 1013.4 1013.4 0.0
25/03:00pm 18.5 12.9 0.2 29 8.0 SW 19 24 10 13 1013.7 1013.7 0.0
25/02:30pm 19.2 14.5 0.8 29 8.2 SSW 15 22 8 12 1013.9 1013.9 0.0
25/02:00pm 18.9 15.0 1.4 31 7.9 WSW 11 17 6 9 1014.3 1014.3 0.0
25/01:30pm 18.7 14.0 1.2 31 7.8 W 15 20 8 11 1014.9 1014.9 0.0
25/01:00pm 18.4 14.0 0.5 30 7.9 W 13 20 7 11 1015.4 1015.4 0.0
25/12:30pm 18.1 13.8 1.2 32 7.5 W 13 20 7 11 1016.0 1016.0 0.0
25/12:00pm 17.8 14.7 1.3 33 7.3 WSW 7 15 4 8 1016.6 1016.6 0.0
25/11:30am 16.9 13.5 -1.7 28 7.7 SW 6 13 3 7 1016.9 1016.9 0.0
25/11:00am 16.4 11.9 -0.3 32 7.1 W 13 20 7 11 1017.2 1017.2 0.0
25/10:30am 17.0 13.8 3.3 40 6.3 NW 9 19 5 10 1017.5 1017.5 0.0
25/10:00am 16.0 12.2 3.8 44 5.6 NNW 13 19 7 10 1017.6 1017.6 0.0
25/09:30am 14.8 11.6 3.3 46 5.2 N 9 17 5 9 1017.6 1017.6 0.0
25/09:00am 14.2 9.7 4.2 51 4.6 N 17 20 9 11 1017.5 1017.5 0.0
25/08:30am 12.7 8.7 4.7 58 3.7 N 15 19 8 10 1017.5 1017.5 0.0
25/08:00am 10.3 7.1 5.1 70 2.4 N 11 15 6 8 1017.5 1017.5 0.0
25/07:30am 6.3 3.8 4.5 88 0.8 N 7 9 4 5 1017.3 1017.3 0.0
25/07:00am 3.5 0.2 2.6 94 0.4 N 9 13 5 7 1017.0 1017.0 0.0
25/06:30am 2.7 -1.1 1.7 93 0.4 N 11 13 6 7 1017.0 1017.0 0.0
25/06:00am 2.3 -0.8 1.3 93 0.4 N 7 9 4 5 1016.9 1016.9 0.0
25/05:30am 2.7 -0.8 1.5 92 0.5 N 9 11 5 6 1016.8 1016.8 0.0
25/05:00am 2.7 -0.8 1.5 92 0.5 NNW 9 11 5 6 1016.8 1016.8 0.0
25/04:30am 1.8 -1.4 0.5 91 0.5 N 7 9 4 5 1016.4 1016.4 0.0
25/04:00am 2.4 -1.1 1.4 93 0.4 NNW 9 9 5 5 1016.2 1016.2 0.0
25/03:30am 2.6 -0.9 1.4 92 0.5 NNW 9 11 5 6 1016.1 1016.1 0.0
25/03:00am 3.2 -0.2 2.0 92 0.5 NNW 9 11 5 6 1016.2 1016.2 0.0
25/02:30am 3.0 -0.8 2.0 93 0.4 N 11 11 6 6 1016.3 1016.3 0.0
25/02:00am 2.9 -0.9 1.7 92 0.5 N 11 13 6 7 1016.3 1016.3 0.0
25/01:30am 4.3 0.3 3.0 91 0.5 N 13 13 7 7 1016.5 1016.5 0.0
25/01:00am 4.9 2.1 3.1 88 0.7 N 7 9 4 5 1016.6 1016.6 0.0
25/12:30am 5.3 2.1 3.0 85 0.9 N 9 11 5 6 1017.0 1017.0 0.0
25/12:00am 6.0 2.4 3.0 81 1.2 NNW 11 13 6 7 1016.9 1016.9 0.0
 
Date/Time
CST
Temp
°C
App
Temp
°C
Dew
Point
°C
Rel
Hum
%
Delta-T
°C
Wind Press
QNH
hPa
Press
MSL
hPa
Rain since
9am
mm
Dir  Spd
km/h
Gust
km/h
Spd
kts
Gust
kts
24/11:30pm 9.6 6.0 3.1 64 2.8 SW 11 13 6 7 1016.7 1016.7 0.0
24/11:00pm 10.5 6.6 3.3 61 3.1 SSW 13 19 7 10 1016.5 1016.5 0.0
24/10:30pm 10.1 6.6 3.6 64 2.8 SW 11 19 6 10 1016.9 1016.9 0.0
24/10:00pm 11.6 7.1 4.3 61 3.3 SW 17 22 9 12 1017.2 1017.2 0.0
24/09:30pm 11.9 7.1 4.4 60 3.4 SW 19 26 10 14 1017.0 1017.0 0.0
24/09:00pm 12.1 7.0 3.1 54 4.0 SW 19 24 10 13 1016.6 1016.6 0.0
24/08:30pm 12.5 6.3 2.1 49 4.5 SW 24 32 13 17 1016.4 1016.4 0.0
24/08:00pm 12.6 7.2 4.6 58 3.7 SW 22 32 12 17 1016.0 1016.0 0.0
24/07:30pm 12.8 6.8 5.5 61 3.4 SW 26 37 14 20 1015.7 1015.7 0.0
24/07:00pm 13.4 8.5 7.0 65 3.1 SW 22 30 12 16 1015.4 1015.4 0.0
24/06:30pm 13.3 7.5 6.4 63 3.3 SW 26 33 14 18 1015.1 1015.1 0.0
24/06:00pm 13.9 8.6 7.0 63 3.4 SW 24 35 13 19 1014.6 1014.6 0.0
24/05:30pm 14.6 8.4 6.2 57 4.0 SW 28 39 15 21 1014.3 1014.3 0.0
24/05:00pm 15.8 9.5 7.6 58 4.1 SW 30 39 16 21 1014.0 1014.0 0.0
24/04:30pm 15.7 9.9 8.0 60 3.9 WSW 28 39 15 21 1013.5 1013.5 0.0
24/04:00pm 15.3 8.4 6.3 55 4.4 SW 32 43 17 23 1013.1 1013.1 0.0
24/03:30pm 16.1 8.3 6.5 53 4.7 SW 37 46 20 25 1012.7 1012.7 0.0
24/03:00pm 16.3 10.2 9.9 66 3.4 WSW 32 41 17 22 1012.2 1012.2 0.0
24/02:39pm 14.0 8.0 10.2 78 2.0 WSW 32 50 17 27 1012.1 1012.1 0.0
24/02:30pm 15.5 8.7 9.2 66 3.2 WSW 35 48 19 26 1011.9 1011.9 0.0
24/02:00pm 16.9 9.8 9.6 62 3.8 WSW 37 44 20 24 1011.7 1011.7 0.0
24/01:30pm 14.3 7.9 9.3 72 2.6 SW 33 44 18 24 1011.7 1011.7 0.0
24/01:00pm 14.7 8.7 10.1 74 2.4 WSW 32 41 17 22 1011.7 1011.7 0.0
24/12:30pm 15.3 8.3 9.9 70 2.8 WSW 37 50 20 27 1011.4 1011.4 0.0
24/12:00pm 15.5 7.0 10.5 72 2.6 WSW 46 69 25 37 1011.1 1011.1 0.0
24/11:49am 15.6 8.5 9.7 68 3.1 WSW 37 61 20 33 1010.9 1010.9 0.0
24/11:30am 15.4 8.6 9.3 67 3.1 WSW 35 48 19 26 1010.9 1010.9 0.0
24/11:00am 16.0 9.2 9.2 64 3.5 WSW 35 46 19 25 1010.6 1010.6 0.0
24/10:30am 16.7 11.0 9.9 64 3.6 W 30 39 16 21 1010.5 1010.5 0.0
24/10:00am 16.6 11.4 10.2 66 3.4 WNW 28 39 15 21 1010.5 1010.5 0.0
24/09:30am 16.8 12.5 12.1 74 2.6 WNW 26 35 14 19 1010.3 1010.3 0.0
24/09:00am 15.1 11.3 12.4 84 1.5 WNW 24 32 13 17 1010.1 1010.1 -
24/08:30am 14.2 11.1 12.1 87 1.1 WNW 20 28 11 15 1009.9 1009.9 -
24/08:00am 13.6 10.4 12.0 90 0.9 WNW 20 30 11 16 1009.7 1009.7 -
24/07:30am 12.3 9.5 11.5 95 0.4 WNW 17 24 9 13 1009.4 1009.4 -
24/07:00am 11.8 9.4 11.5 98 0.2 WNW 15 20 8 11 1008.8 1008.8 -
24/06:30am 11.3 8.9 11.3 100 0.0 WNW 15 20 8 11 1008.5 1008.5 -
24/06:10am 8.9 6.5 8.6 98 0.1 NW 11 13 6 7 1008.3 1008.3 -
24/06:00am 9.1 7.1 8.8 98 0.1 NW 9 11 5 6 1008.1 1008.1 -
24/05:51am 9.2 7.3 8.9 98 0.1 NW 9 11 5 6 1007.9 1007.9 -
24/05:30am 9.2 7.2 8.7 97 0.2 NW 9 9 5 5 1007.7 1007.7 -
24/05:00am 10.4 8.7 9.9 97 0.3 NNW 9 11 5 6 1007.4 1007.4 -
24/04:30am 11.6 10.2 10.8 95 0.4 NW 9 9 5 5 1007.4 1007.4 -
24/04:28am 11.8 10.4 11.0 95 0.4 NW 9 9 5 5 1007.4 1007.4 -
24/04:00am 13.0 11.2 12.1 94 0.5 WSW 13 19 7 10 1007.4 1007.4 -
24/03:49am 12.7 10.8 11.8 94 0.5 WSW 13 15 7 8 1007.4 1007.4 -
24/03:30am 13.0 12.3 12.1 94 0.5 WSW 7 9 4 5 1007.6 1007.6 -
24/03:00am 13.0 12.3 12.1 94 0.5 SW 7 9 4 5 1007.8 1007.8 1.0
24/02:30am 12.7 11.1 11.6 93 0.6 SW 11 13 6 7 1007.6 1007.6 -
24/02:00am 13.5 11.3 12.1 91 0.8 SW 15 20 8 11 1007.5 1007.5 -
24/01:30am 13.3 11.0 11.9 91 0.8 SW 15 19 8 10 1007.6 1007.6 -
24/01:00am 14.1 11.5 12.1 88 1.1 SW 17 24 9 13 1007.9 1007.9 -
24/12:30am 14.4 11.7 12.8 90 0.9 SW 19 26 10 14 1007.5 1007.5 -
24/12:00am 14.5 11.8 12.9 90 0.9 SW 19 28 10 15 1007.6 1007.6 -
 
Date/Time
CST
Temp
°C
App
Temp
°C
Dew
Point
°C
Rel
Hum
%
Delta-T
°C
Wind Press
QNH
hPa
Press
MSL
hPa
Rain since
9am
mm
Dir  Spd
km/h
Gust
km/h
Spd
kts
Gust
kts
23/11:36pm 14.7 11.9 13.2 91 0.8 WSW 20 30 11 16 1007.4 1007.4 -
23/11:30pm 14.8 12.2 13.3 91 0.8 WSW 19 28 10 15 1007.7 1007.7 -
23/11:08pm 14.8 11.9 14.0 95 0.5 SW 22 30 12 16 1006.5 1006.5 -
23/11:00pm 14.8 11.9 14.0 95 0.5 SW 22 30 12 16 1006.2 1006.2 -
23/10:46pm 14.8 11.4 13.8 94 0.6 WSW 24 35 13 19 1006.6 1006.6 -
23/10:30pm 15.3 11.3 14.0 92 0.7 W 28 39 15 21 1007.4 1007.4 -
23/10:24pm 15.4 11.4 14.1 92 0.7 W 28 37 15 20 1007.2 1007.2 -
23/10:00pm 15.4 13.4 13.9 91 0.8 W 17 22 9 12 1006.1 1006.1 -
23/09:30pm 16.2 14.5 12.4 78 2.1 W 13 20 7 11 1006.5 1006.5 -
23/09:00pm 17.3 15.0 11.6 69 3.1 W 15 20 8 11 1005.8 1005.8 -
23/08:30pm 18.0 16.0 11.6 66 3.5 NNW 13 20 7 11 1005.7 1005.7 -
23/08:00pm 18.1 18.7 11.9 67 3.4 CALM 0 0 0 0 1004.5 1004.5 -
23/07:30pm 18.6 18.1 10.7 60 4.3 SE 4 7 2 4 1003.5 1003.5 -
23/07:00pm 19.1 18.9 10.4 57 4.7 SSW 2 11 1 6 1003.5 1003.5 -
23/06:30pm 19.7 16.9 9.9 53 5.3 SW 15 20 8 11 1003.8 1003.8 -
23/06:02pm 21.2 15.3 9.1 46 6.4 W 30 48 16 26 1003.7 1003.7 -
23/06:00pm 21.1 14.9 9.4 47 6.3 W 32 48 17 26 1003.6 1003.6 -
23/05:43pm 23.8 19.9 5.2 30 9.3 NW 15 54 8 29 1002.7 1002.7 -
23/05:30pm 25.4 22.2 5.1 27 10.3 N 11 15 6 8 1001.9 1001.9 -
23/05:00pm 26.7 21.8 3.9 23 11.4 N 19 28 10 15 1001.6 1001.6 -
23/04:30pm 27.2 21.8 4.3 23 11.6 N 22 30 12 16 1001.2 1001.2 -
23/04:00pm 28.0 21.9 3.0 20 12.4 N 24 35 13 19 1001.2 1001.2 -
23/03:30pm 27.3 20.1 3.1 21 12.0 N 30 41 16 22 1001.4 1001.4 -
23/03:00pm 27.8 20.1 3.5 21 12.2 N 33 44 18 24 1001.4 1001.4 -
23/02:30pm 28.4 19.4 2.6 19 12.8 N 39 52 21 28 1001.5 1001.5 -
23/02:00pm 28.5 20.2 4.1 21 12.4 NNE 37 50 20 27 1001.7 1001.7 -
23/01:30pm 26.9 18.8 3.4 22 11.7 N 35 46 19 25 1002.9 1002.9 -
23/01:00pm 27.5 18.8 3.9 22 11.9 N 39 61 21 33 1003.5 1003.5 -
23/12:57pm 26.9 18.2 4.0 23 11.5 NNE 39 61 21 33 1003.5 1003.5 -
23/12:30pm 26.6 17.5 3.8 23 11.4 N 41 52 22 28 1004.3 1004.3 -
23/12:00pm 25.7 16.9 3.6 24 11.0 N 39 57 21 31 1005.3 1005.3 -
23/11:30am 25.2 16.1 3.8 25 10.6 N 41 57 22 31 1005.8 1005.8 -
23/10:30am 22.8 13.4 4.3 30 9.1 NNE 43 61 23 33 1006.9 1006.9 0.0
23/10:00am 21.8 11.7 3.9 31 8.7 NNE 46 67 25 36 1007.5 1007.5 0.0
23/09:32am 20.7 11.0 3.9 33 8.1 N 44 63 24 34 1007.5 1007.5 0.0
23/09:30am 20.7 11.2 3.9 33 8.1 N 43 59 23 32 1007.6 1007.6 0.0
23/09:15am 19.8 10.8 4.3 36 7.4 NNE 41 59 22 32 1007.8 1007.8 0.0
23/09:00am 18.9 9.4 4.7 39 6.8 NNE 44 61 24 33 1007.8 1007.8 0.0
23/08:36am 17.6 7.6 4.2 41 6.3 NNE 46 65 25 35 1008.1 1008.1 0.0
23/08:30am 17.5 7.5 4.5 42 6.2 NNE 46 61 25 33 1008.2 1008.2 0.0
23/08:13am 16.7 7.7 4.4 44 5.8 NNE 41 59 22 32 1008.5 1008.5 0.0
23/08:00am 16.2 8.0 4.6 46 5.5 NNE 37 54 20 29 1008.7 1008.7 0.0
23/07:37am 14.9 7.4 4.6 50 4.8 NNE 33 54 18 29 1009.0 1009.0 0.0
23/07:30am 14.6 6.7 4.6 51 4.7 NE 35 48 19 26 1009.1 1009.1 0.0
23/07:00am 12.9 6.0 4.6 57 3.8 NE 30 41 16 22 1009.4 1009.4 0.0
23/06:30am 12.1 5.5 4.3 59 3.5 NE 28 39 15 21 1009.5 1009.5 0.0
23/06:00am 12.3 5.7 4.0 57 3.7 NE 28 39 15 21 1009.5 1009.5 0.0
23/05:30am 12.5 5.8 3.7 55 3.9 NE 28 39 15 21 1009.4 1009.4 0.0
23/05:00am 12.7 6.0 3.9 55 4.0 NE 28 35 15 19 1009.4 1009.4 0.0
23/04:30am 12.7 6.0 3.9 55 4.0 NE 28 37 15 20 1009.6 1009.6 0.0
23/04:00am 12.8 6.5 4.0 55 4.0 NE 26 33 14 18 1009.9 1009.9 0.0
23/03:30am 11.7 6.8 4.2 60 3.4 NE 19 24 10 13 1010.4 1010.4 0.0
23/03:00am 11.9 7.1 4.6 61 3.3 ENE 19 24 10 13 1010.7 1010.7 0.0
23/02:30am 11.9 7.0 5.1 63 3.1 NE 20 24 11 13 1011.1 1011.1 0.0
23/02:00am 11.9 6.7 5.5 65 3.0 NE 22 28 12 15 1011.6 1011.6 0.0
23/01:30am 11.2 6.0 5.5 68 2.6 ENE 22 26 12 14 1012.1 1012.1 0.0
23/01:00am 11.2 6.0 5.7 69 2.5 ENE 22 26 12 14 1012.3 1012.3 0.0
23/12:30am 10.6 5.9 6.0 73 2.1 ENE 20 24 11 13 1012.7 1012.7 0.0
23/12:00am 10.3 5.8 5.9 74 2.0 ENE 19 22 10 12 1013.3 1013.3 0.0
 
Date/Time
CST
Temp
°C
App
Temp
°C
Dew
Point
°C
Rel
Hum
%
Delta-T
°C
Wind Press
QNH
hPa
Press
MSL
hPa
Rain since
9am
mm
Dir  Spd
km/h
Gust
km/h
Spd
kts
Gust
kts
22/11:30pm 10.8 6.3 6.0 72 2.2 ENE 19 22 10 12 1013.6 1013.6 0.0
22/11:00pm 11.0 6.9 6.0 71 2.3 ENE 17 20 9 11 1013.9 1013.9 0.0
22/10:30pm 11.3 7.2 6.2 71 2.4 ENE 17 20 9 11 1014.1 1014.1 0.0
22/10:00pm 11.2 6.8 6.7 74 2.1 ENE 19 20 10 11 1014.2 1014.2 0.0

Other Formats:

Comma delimited format used in spreadsheet applications
http://www.bom.gov.au/fwo/IDS60801/IDS60801.94653.axf

JavaScript Object Notation format (JSON) in row-major order
http://www.bom.gov.au/fwo/IDS60801/IDS60801.94653.json